createdAt,value
2023-02-27T00:01:12.770Z,9.70
2023-02-27T00:03:39.433Z,9.60
2023-02-27T00:06:06.338Z,9.70
2023-02-27T00:08:33.012Z,9.60
2023-02-27T00:10:59.665Z,9.60
2023-02-27T00:13:26.307Z,9.60
2023-02-27T00:15:53.198Z,9.60
2023-02-27T00:18:19.840Z,9.60
2023-02-27T00:20:46.462Z,9.70
2023-02-27T00:23:13.112Z,9.60
2023-02-27T00:25:39.733Z,9.60
2023-02-27T00:28:06.582Z,9.60
2023-02-27T00:30:33.240Z,9.60
2023-02-27T00:32:59.886Z,9.60
2023-02-27T00:35:26.529Z,9.60
2023-02-27T00:37:53.138Z,9.60
2023-02-27T00:40:19.772Z,9.60
2023-02-27T00:42:46.375Z,9.60
2023-02-27T00:45:13.028Z,9.60
2023-02-27T00:47:39.687Z,9.60
2023-02-27T00:50:06.314Z,9.60
2023-02-27T00:52:33.168Z,9.60
2023-02-27T00:54:59.806Z,9.60
2023-02-27T00:57:26.479Z,9.70
2023-02-27T00:59:53.102Z,9.60
2023-02-27T01:02:19.727Z,9.60
2023-02-27T01:04:46.388Z,9.60
2023-02-27T01:07:13.024Z,9.60
2023-02-27T01:09:39.644Z,9.60
2023-02-27T01:12:06.289Z,9.50
2023-02-27T01:14:32.929Z,9.60
2023-02-27T01:16:59.561Z,9.60
2023-02-27T01:19:26.411Z,9.50
2023-02-27T01:21:53.021Z,9.60
2023-02-27T01:24:19.668Z,9.50
2023-02-27T01:26:46.284Z,9.60
2023-02-27T01:29:12.921Z,9.60
2023-02-27T01:31:39.541Z,9.50
2023-02-27T01:34:06.187Z,9.50
2023-02-27T01:36:32.821Z,9.50
2023-02-27T01:38:59.457Z,9.50
2023-02-27T01:41:26.555Z,9.50
2023-02-27T01:43:53.300Z,9.50
2023-02-27T01:46:19.939Z,9.60
2023-02-27T01:48:46.568Z,9.50
2023-02-27T01:51:13.221Z,9.50
2023-02-27T01:53:39.860Z,9.50
2023-02-27T01:56:06.496Z,9.50
2023-02-27T01:58:33.139Z,9.50
2023-02-27T02:00:59.797Z,9.50
2023-02-27T02:03:26.464Z,9.50
2023-02-27T02:05:53.116Z,9.50
2023-02-27T02:08:19.724Z,9.50
2023-02-27T02:10:46.339Z,9.50
2023-02-27T02:13:12.967Z,9.50
2023-02-27T02:15:39.621Z,9.50
2023-02-27T02:18:06.261Z,9.40
2023-02-27T02:20:32.920Z,9.50
2023-02-27T02:22:59.545Z,9.50
2023-02-27T02:25:26.183Z,9.50
2023-02-27T02:27:52.799Z,9.40
2023-02-27T02:30:19.833Z,9.40
2023-02-27T02:32:46.461Z,9.50
2023-02-27T02:35:13.107Z,9.40
2023-02-27T02:37:39.761Z,9.50
2023-02-27T02:40:06.385Z,9.50
2023-02-27T02:42:33.025Z,9.40
2023-02-27T02:44:59.640Z,9.50
2023-02-27T02:47:26.282Z,9.40
2023-02-27T02:49:52.885Z,9.50
2023-02-27T02:52:19.519Z,9.50
2023-02-27T02:54:46.128Z,9.40
2023-02-27T02:57:12.771Z,9.50
2023-02-27T02:59:39.386Z,9.40
2023-02-27T03:02:06.248Z,9.40
2023-02-27T03:04:32.895Z,9.40
2023-02-27T03:06:59.517Z,9.40
2023-02-27T03:09:26.143Z,9.50
2023-02-27T03:11:52.789Z,9.30
2023-02-27T03:14:19.640Z,9.40
2023-02-27T03:16:46.263Z,9.40
2023-02-27T03:19:12.893Z,9.40
2023-02-27T03:21:39.509Z,9.40
2023-02-27T03:24:06.132Z,9.40
2023-02-27T03:26:32.982Z,9.40
2023-02-27T03:28:59.625Z,9.40
2023-02-27T03:31:26.736Z,9.40
2023-02-27T03:33:53.800Z,9.40
2023-02-27T03:36:20.458Z,9.40
2023-02-27T03:38:47.085Z,9.40
2023-02-27T03:41:13.740Z,9.40
2023-02-27T03:43:40.362Z,9.40
2023-02-27T03:46:07.017Z,9.40
2023-02-27T03:48:33.678Z,9.40
2023-02-27T03:51:00.298Z,9.40
2023-02-27T03:53:26.928Z,9.40
2023-02-27T03:55:53.579Z,9.30
2023-02-27T03:58:20.233Z,9.40
2023-02-27T04:00:46.881Z,9.40
2023-02-27T04:03:13.706Z,9.30
2023-02-27T04:05:40.337Z,9.40
2023-02-27T04:08:06.978Z,9.30
2023-02-27T04:10:33.830Z,9.40
2023-02-27T04:13:00.480Z,9.40
2023-02-27T04:15:27.126Z,9.40
2023-02-27T04:17:53.760Z,9.30
2023-02-27T04:20:20.630Z,9.30
2023-02-27T04:22:47.241Z,9.40
2023-02-27T04:25:13.853Z,9.30
2023-02-27T04:27:40.472Z,9.40
2023-02-27T04:30:07.086Z,9.30
2023-02-27T04:32:33.786Z,9.30
2023-02-27T04:35:00.484Z,9.30
2023-02-27T04:37:27.134Z,9.30
2023-02-27T04:39:53.760Z,9.30
2023-02-27T04:42:20.369Z,9.30
2023-02-27T04:44:46.999Z,9.30
2023-02-27T04:47:13.848Z,9.30
2023-02-27T04:49:40.697Z,9.30
2023-02-27T04:52:07.345Z,9.30
2023-02-27T04:54:33.950Z,9.30
2023-02-27T04:57:00.812Z,9.30
2023-02-27T04:59:27.438Z,9.30
2023-02-27T05:01:54.108Z,9.30
2023-02-27T05:04:20.804Z,9.30
2023-02-27T05:06:47.414Z,9.30
2023-02-27T05:09:14.040Z,9.30
2023-02-27T05:11:40.671Z,9.30
2023-02-27T05:14:07.276Z,9.30
2023-02-27T05:16:33.928Z,9.30
2023-02-27T05:19:00.553Z,9.30
2023-02-27T05:21:28.177Z,9.30
2023-02-27T05:23:54.963Z,9.30
2023-02-27T05:26:21.585Z,9.30
2023-02-27T05:28:48.217Z,9.30
2023-02-27T05:31:14.900Z,9.30
2023-02-27T05:33:41.778Z,9.30
2023-02-27T05:36:08.506Z,9.30
2023-02-27T05:38:35.150Z,9.30
2023-02-27T05:41:02.020Z,9.30
2023-02-27T05:43:28.647Z,9.30
2023-02-27T05:45:55.317Z,9.30
2023-02-27T05:48:21.946Z,9.20
2023-02-27T05:50:48.773Z,9.30
2023-02-27T05:53:15.412Z,9.20
2023-02-27T05:55:42.057Z,9.20
2023-02-27T05:58:08.700Z,9.30
2023-02-27T06:00:35.344Z,9.30
2023-02-27T06:03:02.034Z,9.30
2023-02-27T06:05:28.912Z,9.20
2023-02-27T06:07:55.799Z,9.30
2023-02-27T06:10:22.684Z,9.20
2023-02-27T06:12:49.551Z,9.20
2023-02-27T06:15:16.193Z,9.20
2023-02-27T06:17:42.847Z,9.20
2023-02-27T06:20:09.478Z,9.30
2023-02-27T06:22:36.091Z,9.20
2023-02-27T06:25:02.716Z,9.30
2023-02-27T06:27:29.382Z,9.20
2023-02-27T06:29:56.021Z,9.20
2023-02-27T06:32:22.881Z,9.20
2023-02-27T06:34:50.006Z,9.20
2023-02-27T06:37:16.640Z,9.20
2023-02-27T06:39:43.494Z,9.20
2023-02-27T06:42:10.125Z,9.20
2023-02-27T06:44:36.745Z,9.20
2023-02-27T06:47:03.923Z,9.20
2023-02-27T06:49:30.548Z,9.20
2023-02-27T06:51:57.162Z,9.20
2023-02-27T06:54:23.801Z,9.20
2023-02-27T06:56:50.426Z,9.20
2023-02-27T06:59:17.061Z,9.20
2023-02-27T07:01:44.253Z,9.20
2023-02-27T07:04:10.907Z,9.30
2023-02-27T07:07:35.072Z,9.20
2023-02-27T07:09:24.387Z,9.30
2023-02-27T07:11:51.233Z,9.20
2023-02-27T07:14:17.854Z,9.20
2023-02-27T07:16:44.968Z,9.20
2023-02-27T07:19:11.613Z,9.20
2023-02-27T07:21:38.239Z,9.20
2023-02-27T07:24:04.943Z,9.20
2023-02-27T07:26:31.618Z,9.30
2023-02-27T07:28:58.243Z,9.20
2023-02-27T07:31:25.108Z,9.20
2023-02-27T07:33:52.218Z,9.20
2023-02-27T07:36:18.864Z,9.20
2023-02-27T07:38:45.516Z,9.10
2023-02-27T07:41:21.185Z,9.20
2023-02-27T07:43:56.074Z,9.20
2023-02-27T07:46:22.729Z,9.20
2023-02-27T07:48:50.904Z,9.20
2023-02-27T07:51:17.615Z,9.20
2023-02-27T07:53:44.290Z,9.20
2023-02-27T07:56:10.916Z,9.20
2023-02-27T07:58:37.604Z,9.20
2023-02-27T08:01:04.224Z,9.20
2023-02-27T08:03:30.850Z,9.20
2023-02-27T08:05:57.496Z,9.20
2023-02-27T08:08:24.122Z,9.20
2023-02-27T08:10:50.730Z,9.20
2023-02-27T08:13:24.950Z,9.20
2023-02-27T08:15:56.770Z,9.20
2023-02-27T08:18:23.398Z,9.20
2023-02-27T08:20:50.034Z,9.20
2023-02-27T08:23:16.669Z,9.20
2023-02-27T08:25:43.307Z,9.20
2023-02-27T08:28:09.941Z,9.20
2023-02-27T08:30:36.595Z,9.20
2023-02-27T08:33:03.460Z,9.20
2023-02-27T08:35:30.120Z,9.20
2023-02-27T08:37:57.020Z,9.20
2023-02-27T08:40:23.634Z,9.20
2023-02-27T08:42:50.272Z,9.30
2023-02-27T08:45:16.925Z,9.20
2023-02-27T08:47:44.097Z,9.20
2023-02-27T08:50:10.809Z,9.30
2023-02-27T08:52:37.941Z,9.20
2023-02-27T08:55:04.637Z,9.20
2023-02-27T08:57:31.811Z,9.20
2023-02-27T08:59:58.727Z,9.20
2023-02-27T09:02:25.385Z,9.30
2023-02-27T09:04:52.052Z,9.30
2023-02-27T09:07:18.686Z,9.30
2023-02-27T09:09:46.937Z,9.20
2023-02-27T09:12:14.951Z,9.30
2023-02-27T09:14:41.565Z,9.20
2023-02-27T09:17:08.185Z,9.30
2023-02-27T09:19:35.048Z,9.30
2023-02-27T09:22:01.990Z,9.20
2023-02-27T09:24:29.993Z,9.30
2023-02-27T09:26:56.667Z,9.30
2023-02-27T09:29:23.331Z,9.30
2023-02-27T09:31:50.073Z,9.30
2023-02-27T09:34:16.787Z,9.30
2023-02-27T09:39:30.604Z,9.20
2023-02-27T09:41:57.777Z,9.30
2023-02-27T09:44:36.346Z,9.20
2023-02-27T09:47:10.558Z,9.30
2023-02-27T09:49:37.194Z,9.30
2023-02-27T09:52:03.845Z,9.20
2023-02-27T09:54:30.485Z,9.30
2023-02-27T09:56:57.341Z,9.30
2023-02-27T09:59:23.953Z,9.20
2023-02-27T10:01:50.582Z,9.30
2023-02-27T10:04:17.250Z,9.30
2023-02-27T10:06:44.168Z,9.30
2023-02-27T10:09:10.834Z,9.30
2023-02-27T10:14:24.862Z,9.30
2023-02-27T10:16:51.503Z,9.30
2023-02-27T10:19:18.128Z,9.30
2023-02-27T10:21:44.752Z,9.30
2023-02-27T10:24:11.361Z,9.30
2023-02-27T10:26:37.999Z,9.30
2023-02-27T10:29:04.904Z,9.30
2023-02-27T10:31:31.733Z,9.30
2023-02-27T10:33:58.452Z,9.30
2023-02-27T10:36:33.605Z,9.30
2023-02-27T10:39:02.695Z,9.30
2023-02-27T10:41:29.628Z,9.30
2023-02-27T10:43:56.486Z,9.30
2023-02-27T10:46:23.199Z,9.40
2023-02-27T10:48:49.860Z,9.30
2023-02-27T10:51:16.508Z,9.30
2023-02-27T10:53:43.146Z,9.30
2023-02-27T10:56:09.785Z,9.40
2023-02-27T10:58:36.407Z,9.40
2023-02-27T11:01:03.394Z,9.40
2023-02-27T11:03:30.015Z,9.40
2023-02-27T11:05:56.742Z,9.30
2023-02-27T11:08:23.409Z,9.30
2023-02-27T11:10:50.055Z,9.30
2023-02-27T11:13:16.680Z,9.30
2023-02-27T11:15:43.315Z,9.30
2023-02-27T11:18:10.012Z,9.40
2023-02-27T11:20:36.634Z,9.30
2023-02-27T11:23:03.259Z,9.40
2023-02-27T11:25:29.911Z,9.30
2023-02-27T11:27:56.566Z,9.30
2023-02-27T11:30:23.178Z,9.30
2023-02-27T11:32:49.820Z,9.40
2023-02-27T11:35:16.458Z,9.30
2023-02-27T11:37:43.304Z,9.30
2023-02-27T11:40:09.979Z,9.30
2023-02-27T11:42:36.616Z,9.40
2023-02-27T11:45:03.282Z,9.40
2023-02-27T11:47:30.558Z,9.30
2023-02-27T11:49:57.187Z,9.30
2023-02-27T11:52:23.826Z,9.30
2023-02-27T11:54:50.464Z,9.30
2023-02-27T11:57:17.140Z,9.40
2023-02-27T11:59:43.964Z,9.40
2023-02-27T12:02:10.586Z,9.40
2023-02-27T12:04:37.207Z,9.30
2023-02-27T12:07:03.828Z,9.40
2023-02-27T12:09:30.471Z,9.40
2023-02-27T12:11:57.124Z,9.40
2023-02-27T12:14:23.849Z,9.30
2023-02-27T12:16:50.642Z,9.30
2023-02-27T12:19:17.359Z,9.40
2023-02-27T12:21:44.008Z,9.40
2023-02-27T12:24:10.647Z,9.40
2023-02-27T12:26:37.284Z,9.40
2023-02-27T12:29:03.909Z,9.30
2023-02-27T12:31:30.754Z,9.30
2023-02-27T12:33:57.595Z,9.40
2023-02-27T12:36:24.481Z,9.30
2023-02-27T12:38:51.121Z,9.40
2023-02-27T12:41:17.796Z,9.30
2023-02-27T12:43:44.478Z,9.30
2023-02-27T12:46:11.188Z,9.30
2023-02-27T12:48:37.864Z,9.30
2023-02-27T12:51:04.506Z,9.30
2023-02-27T12:53:31.135Z,9.40
2023-02-27T12:55:57.772Z,9.30
2023-02-27T12:58:24.670Z,9.30
2023-02-27T13:00:51.338Z,9.30
2023-02-27T13:03:17.993Z,9.40
2023-02-27T13:05:44.655Z,9.30
2023-02-27T13:08:11.296Z,9.30
2023-02-27T13:10:37.923Z,9.30
2023-02-27T13:13:04.563Z,9.30
2023-02-27T13:15:31.233Z,9.30
2023-02-27T13:17:57.882Z,9.30
2023-02-27T13:20:24.500Z,9.30
2023-02-27T13:22:51.137Z,9.30
2023-02-27T13:25:17.805Z,9.30
2023-02-27T13:27:44.444Z,9.30
2023-02-27T13:30:11.086Z,9.30
2023-02-27T13:32:43.940Z,9.30
2023-02-27T13:35:11.206Z,9.30
2023-02-27T13:37:37.865Z,9.30
2023-02-27T13:40:04.489Z,9.30
2023-02-27T13:42:31.111Z,9.30
2023-02-27T13:44:57.739Z,9.30
2023-02-27T13:47:24.393Z,9.30
2023-02-27T13:49:51.005Z,9.40
2023-02-27T13:52:17.630Z,9.30
2023-02-27T13:54:44.258Z,9.30
2023-02-27T13:57:11.117Z,9.30
2023-02-27T13:59:37.770Z,9.30
2023-02-27T14:02:04.488Z,9.30
2023-02-27T14:04:31.152Z,9.30
2023-02-27T14:06:57.803Z,9.30
2023-02-27T14:09:24.447Z,9.30
2023-02-27T14:11:51.098Z,9.30
2023-02-27T14:14:17.816Z,9.20
2023-02-27T14:16:44.455Z,9.30
2023-02-27T14:19:11.306Z,9.20
2023-02-27T14:21:37.945Z,9.30
2023-02-27T14:24:04.561Z,9.20
2023-02-27T14:26:31.233Z,9.30
2023-02-27T14:28:57.869Z,9.20
2023-02-27T14:31:24.514Z,9.20
2023-02-27T14:33:51.133Z,9.20
2023-02-27T14:36:17.767Z,9.20
2023-02-27T14:38:44.423Z,9.20
2023-02-27T14:41:11.302Z,9.20
2023-02-27T14:43:37.935Z,9.20
2023-02-27T14:46:04.744Z,9.20
2023-02-27T14:48:31.448Z,9.20
2023-02-27T14:50:58.099Z,9.20
2023-02-27T14:53:24.739Z,9.20
2023-02-27T14:55:51.402Z,9.20
2023-02-27T14:58:18.052Z,9.20
2023-02-27T15:00:44.677Z,9.20
2023-02-27T15:03:11.296Z,9.20
2023-02-27T15:05:37.910Z,9.20
2023-02-27T15:08:04.557Z,9.20
2023-02-27T15:10:31.216Z,9.20
2023-02-27T15:12:57.837Z,9.20
2023-02-27T15:15:24.487Z,9.20
2023-02-27T15:17:51.110Z,9.20
2023-02-27T15:20:17.789Z,9.20
2023-02-27T15:22:44.424Z,9.20
2023-02-27T15:25:11.040Z,9.20
2023-02-27T15:27:37.720Z,9.20
2023-02-27T15:30:04.431Z,9.20
2023-02-27T15:32:31.147Z,9.10
2023-02-27T15:34:57.809Z,9.20
2023-02-27T15:37:24.438Z,9.20
2023-02-27T15:39:51.067Z,9.20
2023-02-27T15:42:17.715Z,9.20
2023-02-27T15:44:44.359Z,9.20
2023-02-27T15:47:10.988Z,9.20
2023-02-27T15:49:37.622Z,9.20
2023-02-27T15:52:04.252Z,9.20
2023-02-27T15:54:30.911Z,9.20
2023-02-27T15:56:57.543Z,9.10
2023-02-27T15:59:24.173Z,9.20
2023-02-27T16:01:50.882Z,9.20
2023-02-27T16:04:19.623Z,9.20
2023-02-27T16:06:47.227Z,9.20
2023-02-27T16:09:13.861Z,9.20
2023-02-27T16:11:40.476Z,9.20
2023-02-27T16:14:07.103Z,9.10
2023-02-27T16:16:33.761Z,9.10
2023-02-27T16:19:00.668Z,9.20
2023-02-27T16:21:27.309Z,9.10
2023-02-27T16:23:54.045Z,9.10
2023-02-27T16:26:20.719Z,9.10
2023-02-27T16:28:47.356Z,9.20
2023-02-27T16:31:14.014Z,9.10
2023-02-27T16:33:40.695Z,9.20
2023-02-27T16:36:07.338Z,9.10
2023-02-27T16:38:33.961Z,9.10
2023-02-27T16:41:00.766Z,9.10
2023-02-27T16:43:27.425Z,9.10
2023-02-27T16:45:54.004Z,9.10
2023-02-27T16:48:20.649Z,9.10
2023-02-27T16:50:47.296Z,9.10
2023-02-27T16:53:13.943Z,9.10
2023-02-27T16:55:40.821Z,9.10
2023-02-27T16:58:07.491Z,9.10
2023-02-27T17:00:34.116Z,9.10
2023-02-27T17:03:00.798Z,9.10
2023-02-27T17:05:27.411Z,9.10
2023-02-27T17:07:54.042Z,9.10
2023-02-27T17:10:20.652Z,9.10
2023-02-27T17:12:47.289Z,9.10
2023-02-27T17:15:13.934Z,9.10
2023-02-27T17:17:40.573Z,9.00
2023-02-27T17:20:07.374Z,9.10
2023-02-27T17:22:34.096Z,9.10
2023-02-27T17:25:00.953Z,9.10
2023-02-27T17:27:27.633Z,9.10
2023-02-27T17:29:54.260Z,9.10
2023-02-27T17:32:21.002Z,9.10
2023-02-27T17:34:47.704Z,9.10
2023-02-27T17:37:14.372Z,9.00
2023-02-27T17:39:41.037Z,9.10
2023-02-27T17:42:07.889Z,9.00
2023-02-27T17:44:34.547Z,9.10
2023-02-27T17:47:01.189Z,9.10
2023-02-27T17:49:27.773Z,9.10
2023-02-27T17:51:54.388Z,9.10
2023-02-27T17:54:21.041Z,9.00
2023-02-27T17:56:47.664Z,9.10
2023-02-27T17:59:14.513Z,9.10
2023-02-27T18:01:41.216Z,9.00
2023-02-27T18:04:07.915Z,9.00
2023-02-27T18:06:34.592Z,9.00
2023-02-27T18:09:01.230Z,9.00
2023-02-27T18:11:27.861Z,9.00
2023-02-27T18:13:54.480Z,9.00
2023-02-27T18:16:21.121Z,9.10
2023-02-27T18:18:47.763Z,9.00
2023-02-27T18:21:14.658Z,9.00
2023-02-27T18:23:41.360Z,9.00
2023-02-27T18:26:09.236Z,9.00
2023-02-27T18:28:39.091Z,9.00
2023-02-27T18:31:05.760Z,9.00
2023-02-27T18:33:32.392Z,9.00
2023-02-27T18:35:59.070Z,9.00
2023-02-27T18:38:25.749Z,9.00
2023-02-27T18:40:52.401Z,9.00
2023-02-27T18:43:19.267Z,9.00
2023-02-27T18:45:46.100Z,9.00
2023-02-27T18:48:12.754Z,9.00
2023-02-27T18:50:39.398Z,9.00
2023-02-27T18:53:06.034Z,9.00
2023-02-27T18:55:32.654Z,9.00
2023-02-27T18:57:59.269Z,9.00
2023-02-27T19:00:25.946Z,9.00
2023-02-27T19:02:52.697Z,9.00
2023-02-27T19:05:19.331Z,9.00
2023-02-27T19:07:45.975Z,9.00
2023-02-27T19:10:12.618Z,9.00
2023-02-27T19:12:39.285Z,8.90
2023-02-27T19:15:05.915Z,8.90
2023-02-27T19:17:32.773Z,9.00
2023-02-27T19:19:59.388Z,9.00
2023-02-27T19:22:26.001Z,9.00
2023-02-27T19:24:52.624Z,9.00
2023-02-27T19:27:19.227Z,8.90
2023-02-27T19:29:45.849Z,9.00
2023-02-27T19:32:12.564Z,8.90
2023-02-27T19:34:39.477Z,8.90
2023-02-27T19:37:06.099Z,9.00
2023-02-27T19:39:33.012Z,9.00
2023-02-27T19:41:59.654Z,9.00
2023-02-27T19:44:26.349Z,8.90
2023-02-27T19:46:53.049Z,8.90
2023-02-27T19:49:19.786Z,8.90
2023-02-27T19:51:46.400Z,8.90
2023-02-27T19:54:13.032Z,8.90
2023-02-27T19:56:39.685Z,8.90
2023-02-27T19:59:06.351Z,8.90
2023-02-27T20:01:33.231Z,8.90
2023-02-27T20:03:59.904Z,8.90
2023-02-27T20:06:26.713Z,8.90
2023-02-27T20:08:53.416Z,8.90
2023-02-27T20:11:20.044Z,8.90
2023-02-27T20:13:46.666Z,8.90
2023-02-27T20:16:13.339Z,8.90
2023-02-27T20:18:41.728Z,8.90
2023-02-27T20:21:08.436Z,8.90
2023-02-27T20:23:35.060Z,8.90
2023-02-27T20:26:01.720Z,8.90
2023-02-27T20:28:28.368Z,8.90
2023-02-27T20:30:55.263Z,8.90
2023-02-27T20:33:21.873Z,8.90
2023-02-27T20:35:48.554Z,8.90
2023-02-27T20:38:15.206Z,8.90
2023-02-27T20:40:41.840Z,8.90
2023-02-27T20:43:08.497Z,8.90
2023-02-27T20:45:35.167Z,8.90
2023-02-27T20:48:02.022Z,8.90
2023-02-27T20:50:28.651Z,8.90
2023-02-27T20:52:55.301Z,8.90
2023-02-27T20:55:21.919Z,8.80
2023-02-27T20:57:48.539Z,8.90
2023-02-27T21:00:15.179Z,8.90
2023-02-27T21:02:41.796Z,8.80
2023-02-27T21:05:08.437Z,8.90
2023-02-27T21:07:35.111Z,8.90
2023-02-27T21:10:01.727Z,8.90
2023-02-27T21:12:28.607Z,8.90
2023-02-27T21:14:55.221Z,8.90
2023-02-27T21:17:21.841Z,8.90
2023-02-27T21:19:48.456Z,8.90
2023-02-27T21:22:15.075Z,8.80
2023-02-27T21:24:41.740Z,8.90
2023-02-27T21:27:08.374Z,8.90
2023-02-27T21:29:34.988Z,8.90
2023-02-27T21:32:01.707Z,8.90
2023-02-27T21:34:28.611Z,8.80
2023-02-27T21:36:55.251Z,8.90
2023-02-27T21:39:21.901Z,8.90
2023-02-27T21:41:48.543Z,8.80
2023-02-27T21:44:15.178Z,8.90
2023-02-27T21:46:41.808Z,8.80
2023-02-27T21:49:08.436Z,8.80
2023-02-27T21:51:40.843Z,8.90
2023-02-27T21:54:07.640Z,8.90
2023-02-27T21:56:34.284Z,8.80
2023-02-27T21:59:00.925Z,8.90
2023-02-27T22:01:27.883Z,8.80
2023-02-27T22:03:54.663Z,8.80
2023-02-27T22:06:21.325Z,8.80
2023-02-27T22:08:48.190Z,8.80
2023-02-27T22:11:14.813Z,8.80
2023-02-27T22:13:41.423Z,8.80
2023-02-27T22:16:08.141Z,8.80
2023-02-27T22:18:34.826Z,8.80
2023-02-27T22:21:01.478Z,8.80
2023-02-27T22:23:28.108Z,8.80
2023-02-27T22:25:54.765Z,8.80
2023-02-27T22:28:21.420Z,8.80
2023-02-27T22:30:48.289Z,8.80
2023-02-27T22:33:14.925Z,8.80
2023-02-27T22:35:41.584Z,8.70
2023-02-27T22:38:08.322Z,8.80
2023-02-27T22:40:34.972Z,8.80
2023-02-27T22:43:01.598Z,8.80
2023-02-27T22:45:28.214Z,8.80
2023-02-27T22:47:54.830Z,8.70
2023-02-27T22:50:21.465Z,8.80
2023-02-27T22:52:48.304Z,8.80
2023-02-27T22:55:14.928Z,8.80
2023-02-27T22:57:41.561Z,8.80
2023-02-27T23:00:08.203Z,8.70
2023-02-27T23:02:34.846Z,8.80
2023-02-27T23:05:01.495Z,8.80
2023-02-27T23:07:28.127Z,8.70
2023-02-27T23:09:54.770Z,8.80
2023-02-27T23:12:21.390Z,8.80
2023-02-27T23:14:48.299Z,8.70
2023-02-27T23:17:14.955Z,8.70
2023-02-27T23:19:41.588Z,8.70
2023-02-27T23:22:08.224Z,8.70
2023-02-27T23:24:34.890Z,8.70
2023-02-27T23:27:01.535Z,8.70
2023-02-27T23:29:28.157Z,8.70
2023-02-27T23:31:55.069Z,8.80
2023-02-27T23:34:21.770Z,8.70
2023-02-27T23:36:48.411Z,8.80
2023-02-27T23:39:15.062Z,8.70
2023-02-27T23:41:41.928Z,8.80
2023-02-27T23:44:08.588Z,8.80
2023-02-27T23:46:35.230Z,8.70
2023-02-27T23:49:01.888Z,8.80
2023-02-27T23:51:30.462Z,8.80
2023-02-27T23:53:57.520Z,8.70
2023-02-27T23:56:24.145Z,8.80
2023-02-27T23:58:51.005Z,8.70
